Time;durP1;ratioP1;P1;durP2;ratioP2;P2;SDS_P1;SDS_P2;PMS_P1;PMS_P2;Temp;Humidity;BMP_temperature;BMP_pressure;BME280_temperature;BME280_humidity;BME280_pressure;Samples;Min_cycle;Max_cycle;Signal;HPM_P1;HPM_P2
2021/12/07 00:00:42;;;;;;;;;;;;;;;20.23;47.27;100112.38;2080741;28;19912;-66
2021/12/07 00:01:42;;;;;;;;;;;;;;;20.22;47.35;100110.69;2082574;28;19912;-66
2021/12/07 00:02:43;;;;;;;;;;;;;;;20.21;47.21;100096.13;2079393;28;19942;-66
2021/12/07 00:03:43;;;;;;;;;;;;;;;20.25;47.21;100104.88;2080639;28;19916;-66
2021/12/07 00:04:44;;;;;;;;;;;;;;;20.26;47.47;100103.84;2077605;28;19999;-66
2021/12/07 00:05:44;;;;;;;;;;;;;;;20.28;47.33;100104.56;2083524;28;19916;-66
2021/12/07 00:06:44;;;;;;;;;;;;;;;20.29;47.25;100111.78;2079166;28;19916;-66
2021/12/07 00:07:45;;;;;;;;;;;;;;;20.30;47.10;100113.47;2081333;28;19956;-66
2021/12/07 00:08:45;;;;;;;;;;;;;;;20.31;47.10;100110.59;2079257;28;19987;-66
2021/12/07 00:09:49;;;;;;;;;;;;;;;20.33;47.24;100118.63;2080107;28;20805;-66
2021/12/07 00:10:51;;;;;;;;;;;;;;;20.32;47.16;100117.78;2075038;28;19917;-66
2021/12/07 00:11:51;;;;;;;;;;;;;;;20.30;47.18;100113.47;2080528;28;19962;-67
2021/12/07 00:12:52;;;;;;;;;;;;;;;20.33;47.03;100110.41;2081349;28;20457;-66
2021/12/07 00:13:52;;;;;;;;;;;;;;;20.34;47.08;100114.91;2082864;28;20008;-67
2021/12/07 00:15:01;;;;;;;;;;;;;;;20.34;47.08;100110.28;2080761;28;19917;-67
2021/12/07 00:16:01;;;;;;;;;;;;;;;20.35;47.16;100111.13;2084671;28;19916;-67
2021/12/07 00:17:03;;;;;;;;;;;;;;;20.35;47.02;100122.94;2080024;28;19917;-67
2021/12/07 00:18:04;;;;;;;;;;;;;;;20.37;47.14;100119.19;2082032;28;20498;-67
2021/12/07 00:19:05;;;;;;;;;;;;;;;20.38;47.13;100119.00;2083616;28;19917;-67
2021/12/07 00:20:07;;;;;;;;;;;;;;;20.38;46.88;100126.38;2080024;28;19916;-66
2021/12/07 00:21:08;;;;;;;;;;;;;;;20.37;46.99;100136.47;2080998;28;20417;-66
2021/12/07 00:22:09;;;;;;;;;;;;;;;20.39;46.79;100139.91;2083702;28;19916;-66
2021/12/07 00:23:10;;;;;;;;;;;;;;;20.40;46.86;100135.28;2078640;28;20099;-67
2021/12/07 00:24:12;;;;;;;;;;;;;;;20.38;46.95;100143.66;2075297;28;19916;-66
2021/12/07 00:25:13;;;;;;;;;;;;;;;20.40;47.15;100147.09;2081339;28;20634;-66
2021/12/07 00:26:13;;;;;;;;;;;;;;;20.40;46.89;100136.16;2080875;28;19920;-67
2021/12/07 00:27:14;;;;;;;;;;;;;;;20.40;47.02;100136.16;2083665;28;19923;-67
2021/12/07 00:28:14;;;;;;;;;;;;;;;20.41;46.92;100132.41;2082227;28;19920;-66
2021/12/07 00:29:15;;;;;;;;;;;;;;;20.41;47.01;100126.09;2085316;28;19923;-66
2021/12/07 00:30:16;;;;;;;;;;;;;;;20.41;47.01;100126.09;2083022;28;19927;-66
2021/12/07 00:31:28;;;;;;;;;;;;;;;20.41;46.96;100140.63;2083741;28;20037;-67
2021/12/07 00:32:34;;;;;;;;;;;;;;;20.39;46.89;100134.44;2085612;28;20404;-68
2021/12/07 00:33:43;;;;;;;;;;;;;;;20.42;47.08;100134.13;2082631;28;19913;-67
2021/12/07 00:35:01;;;;;;;;;;;;;;;20.41;46.82;100135.16;2078871;28;20371;-68
2021/12/07 00:36:02;;;;;;;;;;;;;;;20.40;46.94;100130.66;2089309;28;20287;-68
2021/12/07 00:37:03;;;;;;;;;;;;;;;20.40;46.95;100130.66;2083628;28;19916;-67
2021/12/07 00:38:05;;;;;;;;;;;;;;;20.39;46.95;100120.75;2085029;28;19920;-67
2021/12/07 00:39:06;;;;;;;;;;;;;;;20.41;46.97;100120.59;2083085;28;20007;-68
2021/12/07 00:40:08;;;;;;;;;;;;;;;20.40;47.10;100125.19;2095611;28;19959;-65
2021/12/07 00:41:08;;;;;;;;;;;;;;;20.40;47.06;100130.66;2096683;28;19967;-65
2021/12/07 00:42:09;;;;;;;;;;;;;;;20.40;46.96;100130.66;2097297;28;19939;-65
2021/12/07 00:43:09;;;;;;;;;;;;;;;20.41;47.13;100131.56;2098331;28;19913;-65
2021/12/07 00:44:09;;;;;;;;;;;;;;;20.41;46.91;100131.56;2095101;28;19912;-65
2021/12/07 00:45:11;;;;;;;;;;;;;;;20.41;46.95;100113.25;2098059;28;19912;-65
2021/12/07 00:46:12;;;;;;;;;;;;;;;20.41;46.88;100113.25;2086563;28;19920;-68
2021/12/07 00:47:12;;;;;;;;;;;;;;;20.41;46.86;100107.78;2078854;28;19959;-67
2021/12/07 00:48:13;;;;;;;;;;;;;;;20.41;47.07;100109.66;2083864;28;19924;-67
2021/12/07 00:49:14;;;;;;;;;;;;;;;20.40;46.88;100118.88;2087495;28;20018;-68
2021/12/07 00:50:15;;;;;;;;;;;;;;;20.40;46.87;100125.19;2082803;28;19927;-68
2021/12/07 00:51:15;;;;;;;;;;;;;;;20.40;47.07;100118.88;2084136;28;19916;-67
2021/12/07 00:52:16;;;;;;;;;;;;;;;20.40;46.95;100114.25;2082994;28;19916;-67
2021/12/07 00:53:17;;;;;;;;;;;;;;;20.41;46.86;100109.66;2083522;28;19917;-68
2021/12/07 00:54:17;;;;;;;;;;;;;;;20.41;46.98;100123.34;2093571;28;19916;-64
2021/12/07 00:55:21;;;;;;;;;;;;;;;20.40;47.11;100125.19;2105873;28;19947;-65
2021/12/07 00:56:22;;;;;;;;;;;;;;;20.38;46.95;100131.84;2099129;28;19912;-64
2021/12/07 00:57:25;;;;;;;;;;;;;;;20.38;47.12;100127.22;2090989;28;20342;-65
2021/12/07 00:58:26;;;;;;;;;;;;;;;20.38;46.90;100127.22;2091437;28;19912;-65
2021/12/07 00:59:26;;;;;;;;;;;;;;;20.38;46.96;100121.75;2091788;28;19955;-66
2021/12/07 01:00:28;;;;;;;;;;;;;;;20.39;47.12;100117.16;2093654;28;19919;-64
2021/12/07 01:01:28;;;;;;;;;;;;;;;20.39;47.10;100128.97;2099982;28;19981;-65
2021/12/07 01:02:29;;;;;;;;;;;;;;;20.39;46.97;100131.69;2099963;28;19913;-64
2021/12/07 01:03:29;;;;;;;;;;;;;;;20.39;47.03;100123.50;2099898;28;19956;-65
2021/12/07 01:04:31;;;;;;;;;;;;;;;20.39;47.07;100128.13;2100000;28;20393;-65
2021/12/07 01:05:34;;;;;;;;;;;;;;;20.38;47.17;100129.09;2100003;28;20379;-65
2021/12/07 01:06:47;;;;;;;;;;;;;;;20.37;47.03;100122.78;2107608;28;19961;-65
2021/12/07 01:09:07;;;;;;;;;;;;;;;20.38;47.00;100115.41;2099829;28;19920;-65
2021/12/07 01:24:44;;;;;;;;;;;;;;;20.30;47.27;100097.06;2099793;28;19970;-65
2021/12/07 01:25:44;;;;;;;;;;;;;;;20.30;47.35;100097.06;2099846;28;19919;-65
2021/12/07 01:26:47;;;;;;;;;;;;;;;20.30;47.26;100091.56;2099891;28;19919;-66
2021/12/07 01:27:50;;;;;;;;;;;;;;;20.31;47.14;100096.06;2099781;28;19913;-66
2021/12/07 01:28:50;;;;;;;;;;;;;;;20.31;47.25;100098.78;2099928;28;19912;-66
2021/12/07 01:30:03;;;;;;;;;;;;;;;20.31;47.43;100096.06;2094218;28;19913;-65
2021/12/07 01:31:16;;;;;;;;;;;;;;;20.30;47.24;100097.06;2091317;28;19916;-65
2021/12/07 01:36:08;;;;;;;;;;;;;;;20.28;47.33;100088.13;2091610;28;20263;-66
2021/12/07 01:37:54;;;;;;;;;;;;;;;20.29;47.31;100089.88;2091244;28;20237;-65
2021/12/07 01:44:49;;;;;;;;;;;;;;;20.29;47.25;100089.88;2091346;28;19920;-65
2021/12/07 01:47:58;;;;;;;;;;;;;;;20.30;47.26;100091.56;2099476;28;19919;-65
2021/12/07 01:50:08;;;;;;;;;;;;;;;20.29;47.52;100090.72;2099424;28;19959;-65
2021/12/07 01:51:16;;;;;;;;;;;;;;;20.28;47.27;100105.41;2099486;28;20359;-65
2021/12/07 01:52:43;;;;;;;;;;;;;;;20.30;47.30;100091.56;2099503;28;19912;-65
2021/12/07 02:00:12;;;;;;;;;;;;;;;20.27;47.42;100091.91;2098419;28;19959;-65
2021/12/07 02:01:12;;;;;;;;;;;;;;;20.28;47.53;100093.59;2100089;28;19912;-65
2021/12/07 02:02:13;;;;;;;;;;;;;;;20.28;47.32;100094.47;2095219;28;20011;-65
2021/12/07 02:03:14;;;;;;;;;;;;;;;20.28;47.51;100104.56;2095488;28;19916;-65
2021/12/07 02:04:14;;;;;;;;;;;;;;;20.28;47.48;100107.28;2097376;28;19913;-65
2021/12/07 02:05:15;;;;;;;;;;;;;;;20.26;47.36;100101.09;2098079;28;19970;-65
2021/12/07 02:06:17;;;;;;;;;;;;;;;20.26;47.31;100102.00;2097910;28;20382;-65
2021/12/07 02:07:17;;;;;;;;;;;;;;;20.26;47.52;100101.09;2098367;28;19923;-65
2021/12/07 02:08:18;;;;;;;;;;;;;;;20.26;47.31;100106.59;2105126;28;19917;-65
2021/12/07 02:09:18;;;;;;;;;;;;;;;20.26;47.39;100095.63;2105540;28;20029;-65
2021/12/07 02:10:23;;;;;;;;;;;;;;;20.27;47.55;100102.84;2095206;28;19916;-65
2021/12/07 02:11:24;;;;;;;;;;;;;;;20.25;47.43;100099.41;2097403;28;19917;-65
2021/12/07 02:12:24;;;;;;;;;;;;;;;20.24;47.37;100093.06;2097912;28;19951;-65
2021/12/07 02:14:32;;;;;;;;;;;;;;;20.24;47.39;100092.22;2094109;28;19966;-65
2021/12/07 02:15:32;;;;;;;;;;;;;;;20.24;47.54;100094.97;2092883;28;19924;-65
2021/12/07 02:16:33;;;;;;;;;;;;;;;20.24;47.40;100095.81;2093203;28;20391;-65
2021/12/07 02:17:34;;;;;;;;;;;;;;;20.24;47.63;100098.56;2094517;28;19912;-65
2021/12/07 02:18:34;;;;;;;;;;;;;;;20.24;47.42;100103.19;2094646;28;19916;-65
2021/12/07 02:19:35;;;;;;;;;;;;;;;20.25;47.58;100104.88;2096753;28;19912;-65
2021/12/07 02:20:35;;;;;;;;;;;;;;;20.22;47.59;100097.00;2096803;28;19923;-65
2021/12/07 02:21:36;;;;;;;;;;;;;;;20.25;47.59;100099.41;2095084;28;20371;-65
2021/12/07 02:22:36;;;;;;;;;;;;;;;20.23;47.65;100085.00;2097364;28;19923;-65
2021/12/07 02:23:36;;;;;;;;;;;;;;;20.23;47.64;100095.97;2097350;28;20366;-65
2021/12/07 02:24:37;;;;;;;;;;;;;;;20.23;47.58;100095.97;2092470;28;19921;-65
2021/12/07 02:25:37;;;;;;;;;;;;;;;20.23;47.46;100082.28;2105830;28;19990;-65
2021/12/07 02:26:38;;;;;;;;;;;;;;;20.22;47.49;100091.53;2102746;28;19945;-66
2021/12/07 02:27:39;;;;;;;;;;;;;;;20.22;47.51;100091.53;2097534;28;19967;-65
2021/12/07 02:28:40;;;;;;;;;;;;;;;20.21;47.56;100095.25;2089577;28;19917;-65
2021/12/07 02:29:40;;;;;;;;;;;;;;;20.21;47.66;100093.41;2093826;28;19921;-65
2021/12/07 02:30:41;;;;;;;;;;;;;;;20.22;47.71;100100.59;2098162;28;20419;-65
2021/12/07 02:31:42;;;;;;;;;;;;;;;20.21;47.68;100101.63;2092447;28;19954;-65
2021/12/07 02:32:42;;;;;;;;;;;;;;;20.21;47.59;100095.25;2096020;28;20712;-65
2021/12/07 02:33:43;;;;;;;;;;;;;;;20.20;47.73;100097.13;2098043;28;20050;-65
2021/12/07 02:34:53;;;;;;;;;;;;;;;20.20;47.66;100101.75;2096250;28;19920;-65
2021/12/07 02:35:54;;;;;;;;;;;;;;;20.19;47.58;100103.63;2097931;28;19916;-65
2021/12/07 02:36:54;;;;;;;;;;;;;;;20.20;47.56;100101.75;2097677;28;19948;-65
2021/12/07 02:37:55;;;;;;;;;;;;;;;20.18;47.64;100109.25;2097860;28;19916;-65
2021/12/07 02:38:56;;;;;;;;;;;;;;;20.18;47.60;100109.25;2096235;28;20026;-65
2021/12/07 02:39:57;;;;;;;;;;;;;;;20.18;47.58;100112.84;2096897;28;19913;-65
2021/12/07 02:40:58;;;;;;;;;;;;;;;20.18;47.75;100109.25;2091465;28;19923;-65
2021/12/07 02:41:58;;;;;;;;;;;;;;;20.19;47.62;100119.22;2096000;28;19916;-65
2021/12/07 02:42:59;;;;;;;;;;;;;;;20.16;47.72;100112.13;2094658;28;19916;-65
2021/12/07 02:43:59;;;;;;;;;;;;;;;20.16;47.78;100112.13;2105469;28;19920;-65
2021/12/07 02:45:01;;;;;;;;;;;;;;;20.17;47.63;100113.03;2105550;28;19916;-65
2021/12/07 02:46:02;;;;;;;;;;;;;;;20.16;47.67;100108.56;2097777;28;19962;-65
2021/12/07 02:47:02;;;;;;;;;;;;;;;20.15;47.84;100109.59;2095625;28;19916;-65
2021/12/07 02:48:02;;;;;;;;;;;;;;;20.17;47.69;100113.03;2097632;28;21303;-65
2021/12/07 02:49:04;;;;;;;;;;;;;;;20.13;47.78;100096.91;2097742;28;19920;-65
2021/12/07 02:50:05;;;;;;;;;;;;;;;20.15;47.84;100098.63;2096965;28;19912;-65
2021/12/07 02:51:06;;;;;;;;;;;;;;;20.15;47.68;100098.63;2089510;28;19924;-65
2021/12/07 02:52:07;;;;;;;;;;;;;;;20.15;47.62;100093.16;2097803;28;19916;-65
2021/12/07 02:53:07;;;;;;;;;;;;;;;20.14;47.71;100092.31;2097672;28;19916;-65
2021/12/07 02:54:07;;;;;;;;;;;;;;;20.14;47.82;100092.31;2097927;28;19938;-65
2021/12/07 02:55:08;;;;;;;;;;;;;;;20.14;47.69;100095.03;2096236;28;19935;-64
2021/12/07 02:56:10;;;;;;;;;;;;;;;20.13;47.80;100090.56;2093083;28;20267;-65
2021/12/07 02:57:12;;;;;;;;;;;;;;;20.11;47.79;100082.53;2094980;28;19919;-65
2021/12/07 02:58:12;;;;;;;;;;;;;;;20.12;47.82;100086.13;2095538;28;19917;-65
2021/12/07 02:59:13;;;;;;;;;;;;;;;20.11;47.80;100088.00;2096799;28;19921;-65
2021/12/07 03:00:19;;;;;;;;;;;;;;;20.10;47.72;100075.31;2093655;28;19916;-65
2021/12/07 03:01:24;;;;;;;;;;;;;;;20.12;47.81;100081.50;2096374;28;19923;-65
2021/12/07 03:02:25;;;;;;;;;;;;;;;20.11;47.89;100076.19;2092699;28;19920;-65
2021/12/07 03:03:27;;;;;;;;;;;;;;;20.10;47.76;100075.31;2092164;28;19916;-64
2021/12/07 03:04:35;;;;;;;;;;;;;;;20.10;47.77;100072.59;2095795;28;19912;-65
2021/12/07 03:05:47;;;;;;;;;;;;;;;20.10;47.83;100077.22;2097499;28;19999;-65
2021/12/07 03:26:59;;;;;;;;;;;;;;;20.03;47.97;100076.97;2097930;28;19912;-64
2021/12/07 03:27:59;;;;;;;;;;;;;;;20.02;48.10;100072.53;2097423;28;19913;-64
2021/12/07 03:29:00;;;;;;;;;;;;;;;20.04;48.02;100070.50;2098013;28;19913;-64
2021/12/07 03:30:01;;;;;;;;;;;;;;;20.03;48.06;100063.28;2096336;28;19916;-64
2021/12/07 03:31:01;;;;;;;;;;;;;;;20.01;48.14;100069.94;2096424;28;19920;-64
2021/12/07 03:32:02;;;;;;;;;;;;;;;20.01;48.14;100070.78;2101577;28;19962;-64
2021/12/07 03:33:03;;;;;;;;;;;;;;;20.00;48.20;100060.00;2105273;28;19916;-64
2021/12/07 03:34:03;;;;;;;;;;;;;;;20.02;48.12;100063.47;2096817;28;19920;-64
2021/12/07 03:35:04;;;;;;;;;;;;;;;20.00;48.15;100066.34;2096941;28;19917;-64
2021/12/07 03:36:06;;;;;;;;;;;;;;;19.99;47.96;100061.91;2093837;28;19920;-64
2021/12/07 03:37:06;;;;;;;;;;;;;;;19.99;48.09;100061.91;2097987;28;19912;-64
2021/12/07 03:38:07;;;;;;;;;;;;;;;19.98;48.07;100054.69;2098107;28;19919;-64
2021/12/07 03:39:08;;;;;;;;;;;;;;;19.98;48.19;100060.16;2097606;28;19913;-64
2021/12/07 03:40:09;;;;;;;;;;;;;;;19.98;48.11;100057.44;2098158;28;19912;-64
2021/12/07 03:41:09;;;;;;;;;;;;;;;19.98;48.07;100060.16;2097170;28;20325;-64
2021/12/07 03:42:10;;;;;;;;;;;;;;;19.98;48.08;100054.69;2089681;28;20252;-65
2021/12/07 03:43:12;;;;;;;;;;;;;;;19.98;48.23;100049.22;2097073;28;19913;-64
2021/12/07 03:44:12;;;;;;;;;;;;;;;19.98;48.15;100053.84;2096117;28;19920;-64
2021/12/07 03:45:13;;;;;;;;;;;;;;;19.97;48.22;100050.25;2096285;28;19912;-64
2021/12/07 03:46:14;;;;;;;;;;;;;;;19.97;48.18;100035.72;2093970;28;19939;-64
2021/12/07 03:47:14;;;;;;;;;;;;;;;19.96;48.20;100051.25;2094119;28;19917;-64
2021/12/07 03:48:15;;;;;;;;;;;;;;;19.96;48.20;100037.56;2090962;28;19917;-65
2021/12/07 03:49:15;;;;;;;;;;;;;;;19.96;48.23;100040.31;2103128;28;20654;-64
2021/12/07 03:50:16;;;;;;;;;;;;;;;19.96;48.28;100029.34;2100579;28;19912;-64
2021/12/07 03:51:16;;;;;;;;;;;;;;;19.96;48.20;100036.72;2098120;28;19919;-64
2021/12/07 03:52:17;;;;;;;;;;;;;;;19.96;48.15;100045.78;2097305;28;20124;-64
2021/12/07 03:53:17;;;;;;;;;;;;;;;19.94;48.28;100042.34;2103384;28;19912;-64
2021/12/07 03:54:17;;;;;;;;;;;;;;;19.94;48.26;100041.47;2099759;28;19962;-64
2021/12/07 03:55:18;;;;;;;;;;;;;;;19.93;48.34;100032.41;2097666;28;20375;-64
2021/12/07 03:56:18;;;;;;;;;;;;;;;19.92;48.23;100041.66;2097939;28;19936;-64
2021/12/07 03:57:19;;;;;;;;;;;;;;;19.93;48.35;100040.63;2096767;28;19924;-65
2021/12/07 03:58:19;;;;;;;;;;;;;;;19.92;48.22;100039.78;2096552;28;19913;-64
2021/12/07 03:59:19;;;;;;;;;;;;;;;19.92;48.29;100033.44;2102859;28;19922;-64
2021/12/07 04:00:21;;;;;;;;;;;;;;;19.92;48.19;100033.44;2104119;28;19919;-64
2021/12/07 04:01:23;;;;;;;;;;;;;;;19.91;48.27;100037.19;2098079;28;19916;-65
2021/12/07 04:02:24;;;;;;;;;;;;;;;19.91;48.40;100026.25;2095141;28;19917;-64
2021/12/07 04:03:25;;;;;;;;;;;;;;;19.92;48.30;100027.97;2098961;28;19912;-64
2021/12/07 04:04:25;;;;;;;;;;;;;;;19.91;48.40;100027.09;2098399;28;20370;-64
2021/12/07 04:05:26;;;;;;;;;;;;;;;19.91;48.27;100024.34;2099291;28;19935;-64
2021/12/07 04:06:26;;;;;;;;;;;;;;;19.90;48.30;100014.44;2099415;28;19924;-65
2021/12/07 04:07:27;;;;;;;;;;;;;;;19.90;48.38;100019.06;2098613;28;19923;-64
2021/12/07 04:08:27;;;;;;;;;;;;;;;19.89;48.29;100020.06;2098335;28;20371;-64
2021/12/07 04:09:29;;;;;;;;;;;;;;;19.89;48.38;100028.25;2098913;28;19916;-64
2021/12/07 04:10:29;;;;;;;;;;;;;;;19.88;48.35;100027.41;2099225;28;19919;-64
2021/12/07 04:11:29;;;;;;;;;;;;;;;19.88;48.31;100027.41;2097753;28;19913;-64
2021/12/07 04:12:30;;;;;;;;;;;;;;;19.87;48.34;100036.66;2099042;28;20007;-64
2021/12/07 04:13:30;;;;;;;;;;;;;;;19.88;48.47;100026.56;2099653;28;20372;-64
2021/12/07 04:14:30;;;;;;;;;;;;;;;19.87;48.48;100024.84;2099021;28;19961;-64
2021/12/07 04:15:31;;;;;;;;;;;;;;;19.88;48.40;100026.56;2094199;28;20342;-64
2021/12/07 04:16:31;;;;;;;;;;;;;;;19.87;48.38;100024.84;2099151;28;19920;-64
2021/12/07 04:17:32;;;;;;;;;;;;;;;19.86;48.43;100023.13;2098748;28;19913;-64
2021/12/07 04:18:32;;;;;;;;;;;;;;;19.85;48.46;100027.72;2095783;28;19962;-64
2021/12/07 04:19:32;;;;;;;;;;;;;;;19.85;48.44;100018.66;2095111;28;19916;-64
2021/12/07 04:20:33;;;;;;;;;;;;;;;19.84;48.51;100026.03;2099311;28;19978;-64
2021/12/07 04:21:33;;;;;;;;;;;;;;;19.84;48.45;100025.16;2098774;28;19956;-64
2021/12/07 04:22:33;;;;;;;;;;;;;;;19.84;48.49;100028.75;2098816;28;19919;-64
2021/12/07 04:23:34;;;;;;;;;;;;;;;19.84;48.38;100031.50;2095168;28;19963;-64
2021/12/07 04:24:35;;;;;;;;;;;;;;;19.84;48.42;100036.97;2096846;28;19916;-64
2021/12/07 04:25:35;;;;;;;;;;;;;;;19.83;48.47;100037.13;2091397;28;19967;-64
2021/12/07 04:26:37;;;;;;;;;;;;;;;19.84;48.59;100030.63;2098648;28;19913;-65
2021/12/07 04:27:39;;;;;;;;;;;;;;;19.82;48.39;100033.53;2099178;28;19912;-64
2021/12/07 04:28:41;;;;;;;;;;;;;;;19.82;48.49;100029.91;2091990;28;20019;-64
2021/12/07 04:29:41;;;;;;;;;;;;;;;19.81;48.39;100029.06;2095548;28;20311;-64
2021/12/07 04:30:42;;;;;;;;;;;;;;;19.81;48.55;100026.31;2098538;28;19917;-64
2021/12/07 04:31:43;;;;;;;;;;;;;;;19.81;48.44;100025.47;2099509;28;19930;-65
2021/12/07 04:32:43;;;;;;;;;;;;;;;19.80;48.48;100023.75;2098481;28;19912;-64
2021/12/07 04:33:44;;;;;;;;;;;;;;;19.79;48.53;100028.34;2099492;28;19934;-64
2021/12/07 04:34:44;;;;;;;;;;;;;;;19.79;48.46;100027.50;2106887;28;19915;-64
2021/12/07 04:35:46;;;;;;;;;;;;;;;19.80;48.54;100026.50;2104869;28;19928;-64
2021/12/07 04:36:47;;;;;;;;;;;;;;;19.79;48.61;100022.88;2091368;28;19921;-64
2021/12/07 04:37:47;;;;;;;;;;;;;;;19.79;48.50;100016.56;2096122;28;19991;-64
2021/12/07 04:38:48;;;;;;;;;;;;;;;19.78;48.54;100017.56;2098987;28;19955;-65
2021/12/07 04:39:48;;;;;;;;;;;;;;;19.77;48.55;100016.72;2099520;28;20282;-64
2021/12/07 04:40:48;;;;;;;;;;;;;;;19.78;48.56;100023.03;2098321;28;19985;-64
2021/12/07 04:41:51;;;;;;;;;;;;;;;19.77;48.48;100018.56;2098767;28;19948;-64
2021/12/07 04:42:51;;;;;;;;;;;;;;;19.76;48.60;100011.41;2098554;28;20318;-65
2021/12/07 04:43:52;;;;;;;;;;;;;;;19.75;48.52;100005.06;2098877;28;19913;-64
2021/12/07 04:44:57;;;;;;;;;;;;;;;19.76;48.64;100016.88;2099088;28;19974;-64
2021/12/07 04:46:26;;;;;;;;;;;;;;;19.75;48.59;100015.16;2094356;28;19920;-64
2021/12/07 04:47:26;;;;;;;;;;;;;;;19.75;48.60;100012.44;2097176;28;19919;-64
2021/12/07 04:57:35;;;;;;;;;;;;;;;19.73;48.54;99998.03;2098835;28;19918;-64
2021/12/07 04:58:26;;;;;;;;;;;;;;;19.69;48.72;99976.47;2093884;28;19913;-64
2021/12/07 04:59:26;;;;;;;;;;;;;;;19.69;48.67;99979.19;2097174;28;19920;-64
2021/12/07 05:00:27;;;;;;;;;;;;;;;19.70;48.65;99986.41;2098933;28;19957;-64
2021/12/07 05:01:27;;;;;;;;;;;;;;;19.69;48.70;99984.66;2098780;28;19928;-64
2021/12/07 05:02:28;;;;;;;;;;;;;;;19.69;48.77;99976.47;2097198;28;19920;-64
2021/12/07 05:03:29;;;;;;;;;;;;;;;19.68;48.73;99972.00;2098545;28;20351;-64
2021/12/07 05:04:33;;;;;;;;;;;;;;;19.68;48.75;99974.75;2098403;28;19912;-64
2021/12/07 05:05:43;;;;;;;;;;;;;;;19.68;48.75;99966.56;2097382;28;19921;-63
2021/12/07 05:06:49;;;;;;;;;;;;;;;19.67;48.70;99978.50;2095723;28;20354;-64
2021/12/07 05:07:53;;;;;;;;;;;;;;;19.67;48.80;99969.41;2093004;28;19917;-64
2021/12/07 05:08:59;;;;;;;;;;;;;;;19.67;48.74;99972.13;2096570;28;19916;-64
2021/12/07 05:13:29;;;;;;;;;;;;;;;19.65;48.79;99958.63;2097325;28;20291;-64
2021/12/07 05:14:31;;;;;;;;;;;;;;;19.63;48.85;99968.88;2098626;28;19913;-64
2021/12/07 05:15:57;;;;;;;;;;;;;;;19.63;48.87;99963.41;2099338;28;19913;-64
2021/12/07 05:24:47;;;;;;;;;;;;;;;19.59;49.00;99950.19;2096867;28;19916;-64
2021/12/07 05:34:39;;;;;;;;;;;;;;;19.57;49.06;99941.28;2098941;28;20331;-64
2021/12/07 05:38:48;;;;;;;;;;;;;;;19.53;49.09;99924.34;2096835;28;20295;-64
2021/12/07 05:39:49;;;;;;;;;;;;;;;19.53;49.10;99927.06;2097758;28;20295;-64
2021/12/07 05:40:49;;;;;;;;;;;;;;;19.52;49.13;99922.59;2096134;28;19920;-64
2021/12/07 05:41:50;;;;;;;;;;;;;;;19.51;49.20;99920.91;2098988;28;19955;-64
2021/12/07 05:42:50;;;;;;;;;;;;;;;19.51;49.20;99917.31;2098137;28;19923;-65
2021/12/07 05:43:51;;;;;;;;;;;;;;;19.50;49.11;99924.66;2098978;28;20413;-64
2021/12/07 05:44:52;;;;;;;;;;;;;;;19.50;49.17;99924.66;2098649;28;19966;-64
2021/12/07 05:45:53;;;;;;;;;;;;;;;19.51;49.15;99923.63;2098306;28;19916;-64
2021/12/07 05:46:53;;;;;;;;;;;;;;;19.50;49.18;99924.66;2089683;28;19978;-64
2021/12/07 05:47:53;;;;;;;;;;;;;;;19.49;49.18;99917.47;2098278;28;20458;-64
2021/12/07 05:48:54;;;;;;;;;;;;;;;19.49;49.21;99917.47;2098076;28;20367;-64
2021/12/07 05:49:54;;;;;;;;;;;;;;;19.48;49.20;99910.28;2097917;28;20363;-64
2021/12/07 05:50:54;;;;;;;;;;;;;;;19.48;49.19;99913.88;2099015;28;19919;-64
2021/12/07 05:51:55;;;;;;;;;;;;;;;19.47;49.22;99908.56;2092910;28;19916;-64
2021/12/07 05:52:55;;;;;;;;;;;;;;;19.48;49.25;99910.28;2090887;28;19955;-64
2021/12/07 05:53:56;;;;;;;;;;;;;;;19.48;49.15;99910.28;2098940;28;19924;-64
2021/12/07 05:54:56;;;;;;;;;;;;;;;19.47;49.17;99908.56;2097767;28;19920;-64
2021/12/07 05:55:56;;;;;;;;;;;;;;;19.46;49.25;99906.84;2098153;28;19913;-64
2021/12/07 05:56:57;;;;;;;;;;;;;;;19.46;49.28;99898.66;2097328;28;20401;-64
2021/12/07 05:57:57;;;;;;;;;;;;;;;19.45;49.21;99892.31;2098134;28;19916;-64
2021/12/07 05:58:57;;;;;;;;;;;;;;;19.44;49.21;99896.06;2097416;28;19963;-64
2021/12/07 05:59:58;;;;;;;;;;;;;;;19.45;49.17;99896.91;2098980;28;20444;-64
2021/12/07 06:00:58;;;;;;;;;;;;;;;19.43;49.13;99891.63;2097594;28;19947;-64
2021/12/07 06:01:58;;;;;;;;;;;;;;;19.43;49.08;99885.31;2098495;28;19920;-65
2021/12/07 06:03:02;;;;;;;;;;;;;;;19.43;49.19;99890.78;2097124;28;19919;-64
2021/12/07 06:04:03;;;;;;;;;;;;;;;19.42;49.31;99887.16;2098127;28;19923;-64
2021/12/07 06:05:03;;;;;;;;;;;;;;;19.43;49.18;99885.31;2098690;28;19920;-64
2021/12/07 06:06:04;;;;;;;;;;;;;;;19.43;49.14;99888.03;2096809;28;19912;-65
2021/12/07 06:07:04;;;;;;;;;;;;;;;19.42;49.10;99883.56;2098900;28;20387;-64
2021/12/07 06:08:05;;;;;;;;;;;;;;;19.42;49.19;99883.56;2092356;28;20387;-64
2021/12/07 06:09:05;;;;;;;;;;;;;;;19.41;49.17;99877.25;2096558;28;19917;-64
2021/12/07 06:10:06;;;;;;;;;;;;;;;19.40;49.17;99880.13;2098301;28;19970;-64
2021/12/07 06:11:06;;;;;;;;;;;;;;;19.40;49.21;99891.94;2096248;28;19954;-65
2021/12/07 06:12:07;;;;;;;;;;;;;;;19.39;49.26;99878.44;2098626;28;19919;-64
2021/12/07 06:13:07;;;;;;;;;;;;;;;19.38;49.22;99866.63;2098543;28;19920;-64
2021/12/07 06:14:09;;;;;;;;;;;;;;;19.38;49.29;99872.09;2096469;28;20603;-64
2021/12/07 06:15:10;;;;;;;;;;;;;;;19.38;49.27;99872.09;2098767;28;19942;-65
2021/12/07 06:16:14;;;;;;;;;;;;;;;19.38;49.25;99863.06;2098016;28;19912;-65
2021/12/07 06:17:14;;;;;;;;;;;;;;;19.38;49.22;99876.72;2101512;28;19956;-64
2021/12/07 06:18:14;;;;;;;;;;;;;;;19.38;49.20;99876.72;2106261;28;19919;-65
2021/12/07 06:19:15;;;;;;;;;;;;;;;19.37;49.14;99880.44;2095575;28;20287;-65
2021/12/07 06:20:15;;;;;;;;;;;;;;;19.37;49.23;99874.97;2095370;28;19966;-65
2021/12/07 06:21:16;;;;;;;;;;;;;;;19.36;49.22;99878.75;2099957;28;19924;-64
2021/12/07 06:22:16;;;;;;;;;;;;;;;19.35;49.20;99883.31;2106161;28;19920;-65
2021/12/07 06:23:17;;;;;;;;;;;;;;;19.35;49.23;99880.59;2098429;28;19970;-64
2021/12/07 06:24:17;;;;;;;;;;;;;;;19.36;49.29;99879.59;2095749;28;19998;-65
2021/12/07 06:25:18;;;;;;;;;;;;;;;19.36;49.30;99879.59;2097585;28;19951;-65
2021/12/07 06:26:19;;;;;;;;;;;;;;;19.33;49.30;99870.84;2095170;28;19916;-64
2021/12/07 06:27:19;;;;;;;;;;;;;;;19.35;49.37;99866.06;2094269;28;19947;-64
2021/12/07 06:28:20;;;;;;;;;;;;;;;19.32;49.34;99861.78;2094291;28;19921;-65
2021/12/07 06:29:20;;;;;;;;;;;;;;;19.34;49.38;99858.91;2096888;28;20385;-65
2021/12/07 06:30:20;;;;;;;;;;;;;;;19.32;49.44;99852.72;2098064;28;19916;-65
2021/12/07 06:31:20;;;;;;;;;;;;;;;19.32;49.39;99855.47;2094532;28;19995;-65
2021/12/07 06:32:21;;;;;;;;;;;;;;;19.32;49.38;99850.84;2094765;28;19920;-64
2021/12/07 06:33:22;;;;;;;;;;;;;;;19.32;49.46;99844.53;2091865;28;20409;-65
2021/12/07 06:34:23;;;;;;;;;;;;;;;19.31;49.47;99843.69;2096744;28;19916;-64
2021/12/07 06:35:23;;;;;;;;;;;;;;;19.30;49.49;99836.47;2092231;28;19913;-64
2021/12/07 06:36:24;;;;;;;;;;;;;;;19.30;49.45;99816.50;2098700;28;19967;-64
2021/12/07 06:37:24;;;;;;;;;;;;;;;19.28;49.55;99808.47;2097473;28;19916;-64
2021/12/07 06:38:26;;;;;;;;;;;;;;;19.27;49.51;99793.06;2098127;28;19919;-65
2021/12/07 06:39:26;;;;;;;;;;;;;;;19.28;49.53;99789.34;2090777;28;19913;-64
2021/12/07 06:40:26;;;;;;;;;;;;;;;19.27;49.50;99788.47;2091775;28;19975;-64
2021/12/07 06:41:27;;;;;;;;;;;;;;;19.26;49.60;99784.03;2097242;28;19957;-64
2021/12/07 06:42:27;;;;;;;;;;;;;;;19.26;49.46;99792.22;2094860;28;19940;-65
2021/12/07 06:43:28;;;;;;;;;;;;;;;19.25;49.56;99785.03;2095194;28;19927;-65
2021/12/07 06:44:28;;;;;;;;;;;;;;;19.26;49.52;99792.22;2091917;28;19966;-64
2021/12/07 06:45:29;;;;;;;;;;;;;;;19.25;49.49;99795.97;2097234;28;19970;-65
2021/12/07 06:46:29;;;;;;;;;;;;;;;19.25;49.61;99801.44;2097519;28;20367;-65
2021/12/07 06:47:29;;;;;;;;;;;;;;;19.25;49.58;99790.50;2098265;28;19912;-64